sensor_id;sensor_type;location;lat;lon;timestamp;temperature;humidity
13433;DHT22;6789;47.678;9.158;2024-02-15T00:02:31;8.20;99.90
13433;DHT22;6789;47.678;9.158;2024-02-15T00:07:23;8.20;99.90
13433;DHT22;6789;47.678;9.158;2024-02-15T00:12:15;8.00;99.90
13433;DHT22;6789;47.678;9.158;2024-02-15T00:17:07;7.70;99.90
13433;DHT22;6789;47.678;9.158;2024-02-15T00:21:58;7.50;99.90
13433;DHT22;6789;47.678;9.158;2024-02-15T00:26:51;7.30;99.90
13433;DHT22;6789;47.678;9.158;2024-02-15T00:31:42;7.30;99.90
13433;DHT22;6789;47.678;9.158;2024-02-15T00:36:35;7.20;99.90
13433;DHT22;6789;47.678;9.158;2024-02-15T00:41:26;7.20;99.90
13433;DHT22;6789;47.678;9.158;2024-02-15T00:46:19;7.20;99.90
13433;DHT22;6789;47.678;9.158;2024-02-15T00:51:11;7.10;99.90
13433;DHT22;6789;47.678;9.158;2024-02-15T00:56:03;7.00;99.90
13433;DHT22;6789;47.678;9.158;2024-02-15T01:00:55;6.90;99.90
13433;DHT22;6789;47.678;9.158;2024-02-15T01:05:47;6.90;99.90
13433;DHT22;6789;47.678;9.158;2024-02-15T01:10:38;7.00;99.90
13433;DHT22;6789;47.678;9.158;2024-02-15T01:15:30;6.80;99.90
13433;DHT22;6789;47.678;9.158;2024-02-15T01:20:22;6.70;99.90
13433;DHT22;6789;47.678;9.158;2024-02-15T01:25:14;6.50;99.90
13433;DHT22;6789;47.678;9.158;2024-02-15T01:30:07;6.40;99.90
13433;DHT22;6789;47.678;9.158;2024-02-15T01:35:00;6.30;99.90
13433;DHT22;6789;47.678;9.158;2024-02-15T01:39:52;6.20;99.90
13433;DHT22;6789;47.678;9.158;2024-02-15T01:44:44;6.10;99.90
13433;DHT22;6789;47.678;9.158;2024-02-15T01:49:35;6.10;99.90
13433;DHT22;6789;47.678;9.158;2024-02-15T01:54:28;6.00;99.90
13433;DHT22;6789;47.678;9.158;2024-02-15T01:59:23;6.00;99.90
13433;DHT22;6789;47.678;9.158;2024-02-15T02:04:15;6.00;99.90
13433;DHT22;6789;47.678;9.158;2024-02-15T02:09:13;5.90;99.90
13433;DHT22;6789;47.678;9.158;2024-02-15T02:14:06;5.80;99.90
13433;DHT22;6789;47.678;9.158;2024-02-15T02:18:58;5.70;99.90
13433;DHT22;6789;47.678;9.158;2024-02-15T02:24:02;5.70;99.90
13433;DHT22;6789;47.678;9.158;2024-02-15T02:28:59;5.60;99.90
13433;DHT22;6789;47.678;9.158;2024-02-15T02:33:54;5.60;99.90
13433;DHT22;6789;47.678;9.158;2024-02-15T02:38:46;5.60;99.90
13433;DHT22;6789;47.678;9.158;2024-02-15T02:43:41;5.50;99.90
13433;DHT22;6789;47.678;9.158;2024-02-15T02:48:33;5.50;99.90
13433;DHT22;6789;47.678;9.158;2024-02-15T02:53:25;5.50;99.90
13433;DHT22;6789;47.678;9.158;2024-02-15T02:58:17;5.40;99.90
13433;DHT22;6789;47.678;9.158;2024-02-15T03:03:08;5.30;99.90
13433;DHT22;6789;47.678;9.158;2024-02-15T03:08:01;5.30;99.90
13433;DHT22;6789;47.678;9.158;2024-02-15T03:12:52;5.30;99.90
13433;DHT22;6789;47.678;9.158;2024-02-15T03:17:47;5.20;99.90
13433;DHT22;6789;47.678;9.158;2024-02-15T03:22:40;5.10;99.90
13433;DHT22;6789;47.678;9.158;2024-02-15T03:27:35;5.00;99.90
13433;DHT22;6789;47.678;9.158;2024-02-15T03:32:28;5.00;99.90
13433;DHT22;6789;47.678;9.158;2024-02-15T03:37:20;5.00;99.90
13433;DHT22;6789;47.678;9.158;2024-02-15T03:42:12;5.10;99.90
13433;DHT22;6789;47.678;9.158;2024-02-15T03:47:04;5.00;99.90
13433;DHT22;6789;47.678;9.158;2024-02-15T03:51:57;5.00;99.90
13433;DHT22;6789;47.678;9.158;2024-02-15T03:56:50;4.90;99.90
13433;DHT22;6789;47.678;9.158;2024-02-15T04:01:46;4.90;99.90
13433;DHT22;6789;47.678;9.158;2024-02-15T04:06:38;4.80;99.90
13433;DHT22;6789;47.678;9.158;2024-02-15T04:11:33;4.70;99.90
13433;DHT22;6789;47.678;9.158;2024-02-15T04:16:25;4.60;99.90
13433;DHT22;6789;47.678;9.158;2024-02-15T04:21:17;4.50;99.90
13433;DHT22;6789;47.678;9.158;2024-02-15T04:26:11;4.50;99.90
13433;DHT22;6789;47.678;9.158;2024-02-15T04:31:05;4.50;99.90
13433;DHT22;6789;47.678;9.158;2024-02-15T04:35:59;4.50;99.90
13433;DHT22;6789;47.678;9.158;2024-02-15T04:40:54;4.50;99.90
13433;DHT22;6789;47.678;9.158;2024-02-15T04:45:46;4.50;99.90
13433;DHT22;6789;47.678;9.158;2024-02-15T04:50:37;4.50;99.90
13433;DHT22;6789;47.678;9.158;2024-02-15T04:55:30;4.50;99.90
13433;DHT22;6789;47.678;9.158;2024-02-15T05:00:23;4.50;99.90
13433;DHT22;6789;47.678;9.158;2024-02-15T05:05:30;4.60;99.90
13433;DHT22;6789;47.678;9.158;2024-02-15T05:10:22;4.50;99.90
13433;DHT22;6789;47.678;9.158;2024-02-15T05:15:15;4.50;99.90
13433;DHT22;6789;47.678;9.158;2024-02-15T05:20:10;4.40;99.90
13433;DHT22;6789;47.678;9.158;2024-02-15T05:25:08;4.40;99.90
13433;DHT22;6789;47.678;9.158;2024-02-15T05:30:00;4.30;99.90
13433;DHT22;6789;47.678;9.158;2024-02-15T05:34:52;4.10;99.90
13433;DHT22;6789;47.678;9.158;2024-02-15T05:39:46;4.00;99.90
13433;DHT22;6789;47.678;9.158;2024-02-15T05:44:38;4.00;99.90
13433;DHT22;6789;47.678;9.158;2024-02-15T05:49:29;3.80;99.90
13433;DHT22;6789;47.678;9.158;2024-02-15T05:54:21;3.80;99.90
13433;DHT22;6789;47.678;9.158;2024-02-15T05:59:16;3.80;99.90
13433;DHT22;6789;47.678;9.158;2024-02-15T06:04:08;3.70;99.90
13433;DHT22;6789;47.678;9.158;2024-02-15T06:09:00;3.80;99.90
13433;DHT22;6789;47.678;9.158;2024-02-15T06:13:53;3.70;99.90
13433;DHT22;6789;47.678;9.158;2024-02-15T06:18:46;3.70;99.90
13433;DHT22;6789;47.678;9.158;2024-02-15T06:23:39;3.80;99.90
13433;DHT22;6789;47.678;9.158;2024-02-15T06:28:32;3.90;99.90
13433;DHT22;6789;47.678;9.158;2024-02-15T06:33:42;3.90;99.90
13433;DHT22;6789;47.678;9.158;2024-02-15T06:38:53;3.90;99.90
13433;DHT22;6789;47.678;9.158;2024-02-15T06:44:03;4.00;99.90
13433;DHT22;6789;47.678;9.158;2024-02-15T06:48:55;4.00;99.90
13433;DHT22;6789;47.678;9.158;2024-02-15T06:53:49;4.10;99.90
13433;DHT22;6789;47.678;9.158;2024-02-15T06:58:42;4.20;99.90
13433;DHT22;6789;47.678;9.158;2024-02-15T07:03:34;4.20;99.90
13433;DHT22;6789;47.678;9.158;2024-02-15T07:08:26;4.30;99.90
13433;DHT22;6789;47.678;9.158;2024-02-15T07:13:18;4.40;99.90
13433;DHT22;6789;47.678;9.158;2024-02-15T07:18:12;4.50;99.90
13433;DHT22;6789;47.678;9.158;2024-02-15T07:23:08;4.70;99.90
13433;DHT22;6789;47.678;9.158;2024-02-15T07:33:06;5.30;99.90
13433;DHT22;6789;47.678;9.158;2024-02-15T07:37:58;5.50;99.90
13433;DHT22;6789;47.678;9.158;2024-02-15T07:42:52;5.80;99.90
13433;DHT22;6789;47.678;9.158;2024-02-15T07:47:44;6.00;99.90
13433;DHT22;6789;47.678;9.158;2024-02-15T07:52:36;6.30;99.90
13433;DHT22;6789;47.678;9.158;2024-02-15T07:57:29;6.50;99.90
13433;DHT22;6789;47.678;9.158;2024-02-15T08:02:21;6.70;99.90
13433;DHT22;6789;47.678;9.158;2024-02-15T08:07:13;6.90;99.90
13433;DHT22;6789;47.678;9.158;2024-02-15T08:12:06;7.10;99.90
13433;DHT22;6789;47.678;9.158;2024-02-15T08:16:58;7.10;99.90
13433;DHT22;6789;47.678;9.158;2024-02-15T08:21:50;7.30;99.90
13433;DHT22;6789;47.678;9.158;2024-02-15T08:26:42;7.30;99.90
13433;DHT22;6789;47.678;9.158;2024-02-15T08:31:34;7.30;99.90
13433;DHT22;6789;47.678;9.158;2024-02-15T08:36:26;7.50;99.90
13433;DHT22;6789;47.678;9.158;2024-02-15T08:41:18;7.60;99.90
13433;DHT22;6789;47.678;9.158;2024-02-15T08:46:12;7.60;99.90
13433;DHT22;6789;47.678;9.158;2024-02-15T08:51:04;7.80;99.90
13433;DHT22;6789;47.678;9.158;2024-02-15T08:55:57;8.10;99.90
13433;DHT22;6789;47.678;9.158;2024-02-15T09:00:50;8.30;99.90
13433;DHT22;6789;47.678;9.158;2024-02-15T09:05:42;8.30;99.90
13433;DHT22;6789;47.678;9.158;2024-02-15T09:10:55;8.60;99.90
13433;DHT22;6789;47.678;9.158;2024-02-15T09:15:49;8.70;99.90
13433;DHT22;6789;47.678;9.158;2024-02-15T09:20:41;8.80;99.90
13433;DHT22;6789;47.678;9.158;2024-02-15T09:25:38;9.00;99.90
13433;DHT22;6789;47.678;9.158;2024-02-15T09:30:31;9.30;99.90
13433;DHT22;6789;47.678;9.158;2024-02-15T09:35:23;9.30;99.90
13433;DHT22;6789;47.678;9.158;2024-02-15T09:40:38;9.40;99.90
13433;DHT22;6789;47.678;9.158;2024-02-15T09:46:12;9.70;99.90
13433;DHT22;6789;47.678;9.158;2024-02-15T09:51:06;10.00;99.90
13433;DHT22;6789;47.678;9.158;2024-02-15T09:55:59;10.40;99.90
13433;DHT22;6789;47.678;9.158;2024-02-15T10:00:55;10.50;99.90
13433;DHT22;6789;47.678;9.158;2024-02-15T10:05:48;10.70;99.90
13433;DHT22;6789;47.678;9.158;2024-02-15T10:10:41;10.80;99.90
13433;DHT22;6789;47.678;9.158;2024-02-15T10:15:35;11.00;99.90
13433;DHT22;6789;47.678;9.158;2024-02-15T10:20:31;11.40;99.90
13433;DHT22;6789;47.678;9.158;2024-02-15T10:25:29;11.50;99.90
13433;DHT22;6789;47.678;9.158;2024-02-15T10:30:21;11.80;99.90
13433;DHT22;6789;47.678;9.158;2024-02-15T10:35:23;12.00;99.90
13433;DHT22;6789;47.678;9.158;2024-02-15T10:40:19;12.10;99.90
13433;DHT22;6789;47.678;9.158;2024-02-15T10:45:12;12.10;99.90
13433;DHT22;6789;47.678;9.158;2024-02-15T10:50:07;12.20;99.90
13433;DHT22;6789;47.678;9.158;2024-02-15T10:55:04;11.90;99.90
13433;DHT22;6789;47.678;9.158;2024-02-15T11:00:02;11.70;99.90
13433;DHT22;6789;47.678;9.158;2024-02-15T11:05:05;11.70;99.90
13433;DHT22;6789;47.678;9.158;2024-02-15T11:10:04;11.90;99.90
13433;DHT22;6789;47.678;9.158;2024-02-15T11:15:02;11.90;99.90
13433;DHT22;6789;47.678;9.158;2024-02-15T11:25:41;11.90;99.90
13433;DHT22;6789;47.678;9.158;2024-02-15T11:30:54;12.10;99.90
13433;DHT22;6789;47.678;9.158;2024-02-15T11:46:02;12.20;99.90
13433;DHT22;6789;47.678;9.158;2024-02-15T11:56:54;12.60;99.90
13433;DHT22;6789;47.678;9.158;2024-02-15T12:01:58;12.60;99.90
13433;DHT22;6789;47.678;9.158;2024-02-15T12:07:08;13.00;99.90
13433;DHT22;6789;47.678;9.158;2024-02-15T12:12:19;13.10;99.90
13433;DHT22;6789;47.678;9.158;2024-02-15T12:17:29;13.10;99.90
13433;DHT22;6789;47.678;9.158;2024-02-15T12:22:47;13.20;99.90
13433;DHT22;6789;47.678;9.158;2024-02-15T12:27:44;13.40;99.90
13433;DHT22;6789;47.678;9.158;2024-02-15T12:32:36;13.60;99.90
13433;DHT22;6789;47.678;9.158;2024-02-15T12:37:29;13.80;99.90
13433;DHT22;6789;47.678;9.158;2024-02-15T12:42:38;14.00;99.90
13433;DHT22;6789;47.678;9.158;2024-02-15T12:47:30;13.90;99.90
13433;DHT22;6789;47.678;9.158;2024-02-15T12:52:36;14.10;99.90
13433;DHT22;6789;47.678;9.158;2024-02-15T12:57:30;14.30;99.90
13433;DHT22;6789;47.678;9.158;2024-02-15T13:02:24;14.50;99.90
13433;DHT22;6789;47.678;9.158;2024-02-15T13:07:17;14.70;99.90
13433;DHT22;6789;47.678;9.158;2024-02-15T13:12:10;14.80;99.90
13433;DHT22;6789;47.678;9.158;2024-02-15T13:17:03;15.00;99.90
13433;DHT22;6789;47.678;9.158;2024-02-15T13:21:55;15.00;99.90
13433;DHT22;6789;47.678;9.158;2024-02-15T13:26:49;15.10;99.90
13433;DHT22;6789;47.678;9.158;2024-02-15T13:31:40;15.00;99.90
13433;DHT22;6789;47.678;9.158;2024-02-15T13:36:33;15.20;99.90
13433;DHT22;6789;47.678;9.158;2024-02-15T13:41:25;15.30;99.90
13433;DHT22;6789;47.678;9.158;2024-02-15T13:46:18;15.20;99.90
13433;DHT22;6789;47.678;9.158;2024-02-15T13:51:11;15.50;99.90
13433;DHT22;6789;47.678;9.158;2024-02-15T13:56:03;15.60;99.90
13433;DHT22;6789;47.678;9.158;2024-02-15T14:00:56;15.70;99.90
13433;DHT22;6789;47.678;9.158;2024-02-15T14:05:50;15.80;99.90
13433;DHT22;6789;47.678;9.158;2024-02-15T14:10:42;15.60;99.90
13433;DHT22;6789;47.678;9.158;2024-02-15T14:15:35;15.30;99.90
13433;DHT22;6789;47.678;9.158;2024-02-15T14:20:31;15.00;99.90
13433;DHT22;6789;47.678;9.158;2024-02-15T14:25:24;14.90;99.90
13433;DHT22;6789;47.678;9.158;2024-02-15T14:30:23;14.70;99.90
13433;DHT22;6789;47.678;9.158;2024-02-15T14:35:34;14.60;99.90
13433;DHT22;6789;47.678;9.158;2024-02-15T14:40:28;14.50;99.90
13433;DHT22;6789;47.678;9.158;2024-02-15T14:45:35;14.50;99.90
13433;DHT22;6789;47.678;9.158;2024-02-15T14:50:32;14.50;99.90
13433;DHT22;6789;47.678;9.158;2024-02-15T14:55:24;14.50;99.90
13433;DHT22;6789;47.678;9.158;2024-02-15T15:00:16;14.40;99.90
13433;DHT22;6789;47.678;9.158;2024-02-15T15:05:13;14.20;99.90
13433;DHT22;6789;47.678;9.158;2024-02-15T15:10:24;14.20;99.90
13433;DHT22;6789;47.678;9.158;2024-02-15T15:15:35;14.00;99.90
13433;DHT22;6789;47.678;9.158;2024-02-15T15:20:28;14.00;99.90
13433;DHT22;6789;47.678;9.158;2024-02-15T15:25:20;13.90;99.90
13433;DHT22;6789;47.678;9.158;2024-02-15T15:30:12;14.00;99.90
13433;DHT22;6789;47.678;9.158;2024-02-15T15:35:05;14.10;99.90
13433;DHT22;6789;47.678;9.158;2024-02-15T15:40:01;14.00;99.90
13433;DHT22;6789;47.678;9.158;2024-02-15T15:44:52;13.90;99.90
13433;DHT22;6789;47.678;9.158;2024-02-15T15:49:44;13.70;99.90
13433;DHT22;6789;47.678;9.158;2024-02-15T15:54:40;13.60;99.90
13433;DHT22;6789;47.678;9.158;2024-02-15T15:59:32;13.50;99.90
13433;DHT22;6789;47.678;9.158;2024-02-15T16:04:23;13.40;99.90
13433;DHT22;6789;47.678;9.158;2024-02-15T16:09:15;13.20;99.90
13433;DHT22;6789;47.678;9.158;2024-02-15T16:14:10;13.10;99.90
13433;DHT22;6789;47.678;9.158;2024-02-15T16:19:05;13.00;99.90
13433;DHT22;6789;47.678;9.158;2024-02-15T16:23:57;12.90;99.90
13433;DHT22;6789;47.678;9.158;2024-02-15T16:29:03;12.80;99.90
13433;DHT22;6789;47.678;9.158;2024-02-15T16:33:56;12.70;99.90
13433;DHT22;6789;47.678;9.158;2024-02-15T16:38:48;12.60;99.90
13433;DHT22;6789;47.678;9.158;2024-02-15T16:43:40;12.50;99.90
13433;DHT22;6789;47.678;9.158;2024-02-15T16:48:31;12.40;99.90
13433;DHT22;6789;47.678;9.158;2024-02-15T16:53:24;12.20;99.90
13433;DHT22;6789;47.678;9.158;2024-02-15T16:58:16;12.20;99.90
13433;DHT22;6789;47.678;9.158;2024-02-15T17:03:11;12.10;99.90
13433;DHT22;6789;47.678;9.158;2024-02-15T17:08:05;12.00;99.90
13433;DHT22;6789;47.678;9.158;2024-02-15T17:12:59;11.90;99.90
13433;DHT22;6789;47.678;9.158;2024-02-15T17:17:53;11.70;99.90
13433;DHT22;6789;47.678;9.158;2024-02-15T17:22:46;11.60;99.90
13433;DHT22;6789;47.678;9.158;2024-02-15T17:27:39;11.50;99.90
13433;DHT22;6789;47.678;9.158;2024-02-15T17:32:31;11.40;99.90
13433;DHT22;6789;47.678;9.158;2024-02-15T17:37:23;11.30;99.90
13433;DHT22;6789;47.678;9.158;2024-02-15T17:42:15;11.20;99.90
13433;DHT22;6789;47.678;9.158;2024-02-15T17:47:07;11.10;99.90
13433;DHT22;6789;47.678;9.158;2024-02-15T17:51:59;10.90;99.90
13433;DHT22;6789;47.678;9.158;2024-02-15T17:56:50;10.90;99.90
13433;DHT22;6789;47.678;9.158;2024-02-15T18:01:44;10.90;99.90
13433;DHT22;6789;47.678;9.158;2024-02-15T18:06:36;10.90;99.90
13433;DHT22;6789;47.678;9.158;2024-02-15T18:11:28;10.80;99.90
13433;DHT22;6789;47.678;9.158;2024-02-15T18:16:20;10.90;99.90
13433;DHT22;6789;47.678;9.158;2024-02-15T18:21:13;10.70;99.90
13433;DHT22;6789;47.678;9.158;2024-02-15T18:26:05;10.60;99.90
13433;DHT22;6789;47.678;9.158;2024-02-15T18:30:57;10.60;99.90
13433;DHT22;6789;47.678;9.158;2024-02-15T18:35:49;10.40;99.90
13433;DHT22;6789;47.678;9.158;2024-02-15T18:40:41;10.20;99.90
13433;DHT22;6789;47.678;9.158;2024-02-15T18:45:34;10.10;99.90
13433;DHT22;6789;47.678;9.158;2024-02-15T18:50:28;10.00;99.90
13433;DHT22;6789;47.678;9.158;2024-02-15T18:55:20;9.80;99.90
13433;DHT22;6789;47.678;9.158;2024-02-15T19:00:13;9.70;99.90
13433;DHT22;6789;47.678;9.158;2024-02-15T19:05:22;9.60;99.90
13433;DHT22;6789;47.678;9.158;2024-02-15T19:10:19;9.50;99.90
13433;DHT22;6789;47.678;9.158;2024-02-15T19:15:13;9.40;99.90
13433;DHT22;6789;47.678;9.158;2024-02-15T19:20:07;9.40;99.90
13433;DHT22;6789;47.678;9.158;2024-02-15T19:25:02;9.30;99.90
13433;DHT22;6789;47.678;9.158;2024-02-15T19:29:54;9.30;99.90
13433;DHT22;6789;47.678;9.158;2024-02-15T19:34:46;9.30;99.90
13433;DHT22;6789;47.678;9.158;2024-02-15T19:39:38;9.20;99.90
13433;DHT22;6789;47.678;9.158;2024-02-15T19:44:31;9.20;99.90
13433;DHT22;6789;47.678;9.158;2024-02-15T19:49:24;9.30;99.90
13433;DHT22;6789;47.678;9.158;2024-02-15T19:54:16;9.30;99.90
13433;DHT22;6789;47.678;9.158;2024-02-15T19:59:08;9.30;99.90
13433;DHT22;6789;47.678;9.158;2024-02-15T20:04:00;9.30;99.90
13433;DHT22;6789;47.678;9.158;2024-02-15T20:08:53;9.20;99.90
13433;DHT22;6789;47.678;9.158;2024-02-15T20:13:46;8.90;99.90
13433;DHT22;6789;47.678;9.158;2024-02-15T20:18:37;9.00;99.90
13433;DHT22;6789;47.678;9.158;2024-02-15T20:23:30;9.00;99.90
13433;DHT22;6789;47.678;9.158;2024-02-15T20:28:22;8.90;99.90
13433;DHT22;6789;47.678;9.158;2024-02-15T20:33:14;9.00;99.90
13433;DHT22;6789;47.678;9.158;2024-02-15T20:38:06;9.00;99.90
13433;DHT22;6789;47.678;9.158;2024-02-15T20:42:58;8.90;99.90
13433;DHT22;6789;47.678;9.158;2024-02-15T20:47:50;8.80;99.90
13433;DHT22;6789;47.678;9.158;2024-02-15T20:52:42;8.70;99.90
13433;DHT22;6789;47.678;9.158;2024-02-15T20:57:37;8.70;99.90
13433;DHT22;6789;47.678;9.158;2024-02-15T21:02:30;8.60;99.90
13433;DHT22;6789;47.678;9.158;2024-02-15T21:07:23;8.60;99.90
13433;DHT22;6789;47.678;9.158;2024-02-15T21:12:15;8.50;99.90
13433;DHT22;6789;47.678;9.158;2024-02-15T21:17:07;8.50;99.90
13433;DHT22;6789;47.678;9.158;2024-02-15T21:21:59;8.50;99.90
13433;DHT22;6789;47.678;9.158;2024-02-15T21:26:52;8.50;99.90
13433;DHT22;6789;47.678;9.158;2024-02-15T21:31:44;8.50;99.90
13433;DHT22;6789;47.678;9.158;2024-02-15T21:36:37;8.50;99.90
13433;DHT22;6789;47.678;9.158;2024-02-15T21:41:30;8.50;99.90
13433;DHT22;6789;47.678;9.158;2024-02-15T21:46:22;8.50;99.90
13433;DHT22;6789;47.678;9.158;2024-02-15T21:51:13;8.60;99.90
13433;DHT22;6789;47.678;9.158;2024-02-15T21:56:05;8.60;99.90
13433;DHT22;6789;47.678;9.158;2024-02-15T22:00:57;8.60;99.90
13433;DHT22;6789;47.678;9.158;2024-02-15T22:06:04;8.60;99.90
13433;DHT22;6789;47.678;9.158;2024-02-15T22:10:57;8.50;99.90
13433;DHT22;6789;47.678;9.158;2024-02-15T22:15:51;8.40;99.90
13433;DHT22;6789;47.678;9.158;2024-02-15T22:20:44;8.40;99.90
13433;DHT22;6789;47.678;9.158;2024-02-15T22:25:36;8.30;99.90
13433;DHT22;6789;47.678;9.158;2024-02-15T22:30:29;8.30;99.90
13433;DHT22;6789;47.678;9.158;2024-02-15T22:35:21;8.20;99.90
13433;DHT22;6789;47.678;9.158;2024-02-15T22:40:16;8.20;99.90
13433;DHT22;6789;47.678;9.158;2024-02-15T22:45:09;8.10;99.90
13433;DHT22;6789;47.678;9.158;2024-02-15T22:50:17;8.00;99.90
13433;DHT22;6789;47.678;9.158;2024-02-15T22:55:17;7.90;99.90
13433;DHT22;6789;47.678;9.158;2024-02-15T23:00:11;7.90;99.90
13433;DHT22;6789;47.678;9.158;2024-02-15T23:05:06;7.90;99.90
13433;DHT22;6789;47.678;9.158;2024-02-15T23:10:14;7.80;99.90
13433;DHT22;6789;47.678;9.158;2024-02-15T23:15:06;7.90;99.90
13433;DHT22;6789;47.678;9.158;2024-02-15T23:19:58;7.80;99.90
13433;DHT22;6789;47.678;9.158;2024-02-15T23:24:50;7.80;99.90
13433;DHT22;6789;47.678;9.158;2024-02-15T23:29:42;7.80;99.90
13433;DHT22;6789;47.678;9.158;2024-02-15T23:34:35;7.80;99.90
13433;DHT22;6789;47.678;9.158;2024-02-15T23:39:27;7.90;99.90
13433;DHT22;6789;47.678;9.158;2024-02-15T23:44:37;7.90;99.90
13433;DHT22;6789;47.678;9.158;2024-02-15T23:49:29;8.00;99.90
13433;DHT22;6789;47.678;9.158;2024-02-15T23:54:21;8.00;99.90
13433;DHT22;6789;47.678;9.158;2024-02-15T23:59:13;8.00;99.90
